createdAt,value
2018-06-05T05:01:28.155Z,57.77
2018-06-05T05:06:31.463Z,58.53
2018-06-05T05:11:34.859Z,58.15
2018-06-05T05:16:38.184Z,58.08
2018-06-05T05:21:41.626Z,57.71
2018-06-05T05:26:45.683Z,57.70
2018-06-05T05:31:49.186Z,57.92
2018-06-05T05:36:53.514Z,58.26
2018-06-05T05:41:57.563Z,57.54
2018-06-05T05:47:00.901Z,58.51
2018-06-05T05:52:04.911Z,57.74
2018-06-05T05:57:09.196Z,58.21
2018-06-05T06:02:12.442Z,58.21
2018-06-05T06:07:15.731Z,57.68
2018-06-05T06:12:19.787Z,57.24
2018-06-05T06:17:23.072Z,58.60
2018-06-05T06:22:27.126Z,58.01
2018-06-05T06:27:30.403Z,57.97
2018-06-05T06:32:33.695Z,57.36
2018-06-05T06:37:36.982Z,56.51
2018-06-05T06:42:40.292Z,55.85
2018-06-05T06:47:43.591Z,56.35
2018-06-05T06:52:46.870Z,55.89
2018-06-05T06:57:50.932Z,55.76
2018-06-05T07:02:54.211Z,55.00
2018-06-05T07:07:57.508Z,55.16
2018-06-05T07:13:00.778Z,55.05
2018-06-05T07:18:04.061Z,54.27
2018-06-05T07:23:08.115Z,54.16
2018-06-05T07:28:11.400Z,53.31
2018-06-05T07:33:15.452Z,52.65
2018-06-05T07:38:18.736Z,53.00
2018-06-05T07:43:22.022Z,52.22
2018-06-05T07:48:25.322Z,52.77
2018-06-05T07:53:28.775Z,53.02
2018-06-05T07:58:32.599Z,52.87
2018-06-05T08:03:36.659Z,52.74
2018-06-05T08:08:39.941Z,51.93
2018-06-05T08:13:44.008Z,51.83
2018-06-05T08:18:47.314Z,51.75
2018-06-05T08:23:50.594Z,51.55
2018-06-05T08:28:53.919Z,51.64
2018-06-05T08:33:57.429Z,51.25
2018-06-05T08:39:00.711Z,50.82
2018-06-05T08:44:03.991Z,50.42
2018-06-05T08:49:07.263Z,50.31
2018-06-05T08:54:10.568Z,50.24
2018-06-05T08:59:14.604Z,50.44
2018-06-05T09:04:18.655Z,50.03
2018-06-05T09:09:21.936Z,49.29
2018-06-05T09:14:25.215Z,49.12
2018-06-05T09:19:28.533Z,48.65
2018-06-05T09:24:31.855Z,48.87
2018-06-05T09:29:35.140Z,48.91
2018-06-05T09:34:38.446Z,48.84
2018-06-05T09:39:41.748Z,48.93
2018-06-05T09:44:45.230Z,48.67
2018-06-05T09:49:49.279Z,47.83
2018-06-05T09:54:52.767Z,46.34
2018-06-05T09:59:56.936Z,46.90
2018-06-05T10:05:00.215Z,46.57
2018-06-05T10:10:04.340Z,45.98
2018-06-05T10:15:08.399Z,45.41
2018-06-05T10:20:11.674Z,44.59
2018-06-05T10:25:15.727Z,43.24
2018-06-05T10:30:19.524Z,43.52
2018-06-05T10:35:22.806Z,42.82
2018-06-05T10:40:26.091Z,42.72
2018-06-05T10:45:29.893Z,39.86
2018-06-05T10:50:33.194Z,38.49
2018-06-05T10:55:37.234Z,37.95
2018-06-05T11:00:40.527Z,37.13
2018-06-05T11:05:44.604Z,37.14
2018-06-05T11:10:48.078Z,35.70
2018-06-05T11:15:52.139Z,35.38
2018-06-05T11:20:55.422Z,34.56
2018-06-05T11:25:59.859Z,35.90
2018-06-05T11:31:03.931Z,34.21
2018-06-05T11:36:07.244Z,34.59
2018-06-05T11:41:10.718Z,35.20
2018-06-05T11:46:14.791Z,33.83
2018-06-05T11:51:18.084Z,33.99
2018-06-05T11:56:21.376Z,32.97
2018-06-05T12:01:25.424Z,32.36
2018-06-05T12:06:28.707Z,31.69
2018-06-05T12:11:32.756Z,31.14
2018-06-05T12:16:36.358Z,31.61
2018-06-05T12:21:40.692Z,31.31
2018-06-05T12:26:44.753Z,30.79
2018-06-05T12:31:48.052Z,29.67
2018-06-05T12:36:51.360Z,28.80
2018-06-05T12:41:54.671Z,28.91
2018-06-05T12:46:58.180Z,28.91
2018-06-05T12:52:02.218Z,28.66
2018-06-05T12:57:05.503Z,28.40
2018-06-05T13:02:08.786Z,28.50
2018-06-05T13:07:12.068Z,28.08
2018-06-05T13:12:15.559Z,30.85
2018-06-05T13:17:19.023Z,29.57
2018-06-05T13:22:23.202Z,29.04
2018-06-05T13:27:27.246Z,28.76
2018-06-05T13:32:30.752Z,28.58
2018-06-05T13:37:34.093Z,28.30
2018-06-05T13:42:37.328Z,26.72
2018-06-05T13:47:40.621Z,26.46
2018-06-05T13:52:43.908Z,25.61
2018-06-05T13:57:47.192Z,25.72
2018-06-05T14:02:51.238Z,24.43
2018-06-05T14:07:55.291Z,25.67
2018-06-05T14:12:58.571Z,26.63
2018-06-05T14:18:02.627Z,26.35
2018-06-05T14:23:05.907Z,27.50
2018-06-05T14:28:09.958Z,26.39
2018-06-05T14:33:14.007Z,25.63
2018-06-05T14:38:17.297Z,24.96
2018-06-05T14:43:20.583Z,24.04
2018-06-05T14:48:23.868Z,23.07
2018-06-05T14:53:27.150Z,23.15
2018-06-05T14:58:30.451Z,22.92
2018-06-05T15:03:33.724Z,22.17
2018-06-05T15:08:37.776Z,22.24
2018-06-05T15:13:41.832Z,22.93
2018-06-05T15:18:45.114Z,22.06
2018-06-05T15:23:49.161Z,21.92
2018-06-05T15:28:52.457Z,21.79
2018-06-05T15:33:55.746Z,22.76
2018-06-05T15:38:59.022Z,21.58
2018-06-05T15:44:02.307Z,21.84
2018-06-05T15:49:05.593Z,22.67
2018-06-05T15:54:09.640Z,22.51
2018-06-05T15:59:12.914Z,22.35
2018-06-05T16:04:16.219Z,21.90
2018-06-05T16:09:19.564Z,20.83
2018-06-05T16:14:22.842Z,19.62
2018-06-05T16:19:26.134Z,21.00
2018-06-05T16:24:29.455Z,19.89
2018-06-05T16:29:32.752Z,19.87
2018-06-05T16:34:36.232Z,19.52
2018-06-05T16:39:39.531Z,19.28
2018-06-05T16:44:43.832Z,20.68
2018-06-05T16:49:47.150Z,21.12
2018-06-05T16:54:50.446Z,21.12
2018-06-05T16:59:53.771Z,20.22
2018-06-05T17:04:57.069Z,19.84
2018-06-05T17:10:00.638Z,19.82
2018-06-05T17:15:04.711Z,19.53
2018-06-05T17:20:08.183Z,19.80
2018-06-05T17:25:12.228Z,20.39
2018-06-05T17:30:15.539Z,20.30
2018-06-05T17:35:18.845Z,20.35
2018-06-05T17:40:46.491Z,19.89
2018-06-05T17:45:49.972Z,19.63
2018-06-05T17:50:53.256Z,19.53
2018-06-05T17:55:56.567Z,19.66
2018-06-05T18:00:59.857Z,20.17
2018-06-05T18:06:04.070Z,20.35
2018-06-05T18:11:07.380Z,20.47
2018-06-05T18:16:10.683Z,20.83
2018-06-05T18:21:14.173Z,21.21
2018-06-05T18:26:18.212Z,21.36
2018-06-05T18:31:21.693Z,21.60
2018-06-05T18:36:25.744Z,21.71
2018-06-05T18:41:29.436Z,21.98
2018-06-05T18:46:33.489Z,22.42
2018-06-05T18:51:36.800Z,22.65
2018-06-05T18:56:40.098Z,23.08
2018-06-05T19:01:43.402Z,23.62
2018-06-05T19:06:47.475Z,24.51
2018-06-05T19:11:51.253Z,24.82
2018-06-05T19:16:55.298Z,25.23
2018-06-05T19:21:58.593Z,26.04
2018-06-05T19:27:02.640Z,26.28
2018-06-05T19:32:05.926Z,26.49
2018-06-05T19:37:09.988Z,27.37
2018-06-05T19:42:13.303Z,27.37
2018-06-05T19:47:16.604Z,27.33
2018-06-05T19:52:19.875Z,27.50
2018-06-05T19:57:23.188Z,27.85
2018-06-05T20:02:26.512Z,28.02
2018-06-05T20:07:30.725Z,28.28
2018-06-05T20:12:35.037Z,28.63
2018-06-05T20:17:38.558Z,29.19
2018-06-05T20:22:41.868Z,29.54
2018-06-05T20:27:45.167Z,29.88
2018-06-05T20:32:48.455Z,30.44
2018-06-05T20:37:51.740Z,31.06
2018-06-05T20:42:55.842Z,31.40
2018-06-05T20:47:59.105Z,31.77
2018-06-05T20:53:02.520Z,32.15
2018-06-05T20:58:06.846Z,32.88
2018-06-05T21:03:10.265Z,33.03
2018-06-05T21:08:14.596Z,33.47
2018-06-05T21:13:18.818Z,33.76
2018-06-05T21:18:22.875Z,34.36
2018-06-05T21:23:26.292Z,34.55
2018-06-05T21:28:29.796Z,34.92
2018-06-05T21:33:33.870Z,35.39
2018-06-05T21:38:37.179Z,35.61
2018-06-05T21:43:40.892Z,36.13
2018-06-05T21:48:44.172Z,36.26
2018-06-05T21:53:47.487Z,36.47
2018-06-05T21:58:51.532Z,36.93
2018-06-05T22:03:54.820Z,37.54
2018-06-05T22:08:58.099Z,37.90
2018-06-05T22:14:01.407Z,37.94
2018-06-05T22:19:04.720Z,38.30
2018-06-05T22:24:07.999Z,38.56
2018-06-05T22:29:23.659Z,38.98
